Time;durP1;ratioP1;P1;durP2;ratioP2;P2;SDS_P1;SDS_P2;PMS_P1;PMS_P2;Temp;Humidity;BMP_temperature;BMP_pressure;BME280_temperature;BME280_humidity;BME280_pressure;Samples;Min_cycle;Max_cycle;Signal;HPM_P1;HPM_P2
2023/09/15 00:01:51;;;;;;;8.57;5.18;;;;;;;12.52;100.00;94176.72;5090869;28;20055;-59
2023/09/15 00:04:18;;;;;;;10.98;6.13;;;;;;;12.60;100.00;94182.88;5091618;28;20465;-59
2023/09/15 00:06:47;;;;;;;9.88;5.72;;;;;;;12.50;100.00;94181.88;5091705;28;20078;-59
2023/09/15 00:09:15;;;;;;;10.10;5.70;;;;;;;12.49;100.00;94185.81;5092714;28;20036;-59
2023/09/15 00:11:42;;;;;;;9.38;5.45;;;;;;;12.49;100.00;94177.53;5091745;28;20040;-59
2023/09/15 00:14:11;;;;;;;8.25;5.38;;;;;;;12.49;100.00;94182.28;5092325;28;20040;-59
2023/09/15 00:16:39;;;;;;;10.05;6.20;;;;;;;12.42;100.00;94187.94;5091283;28;20051;-59
2023/09/15 00:19:13;;;;;;;10.05;5.60;;;;;;;12.44;100.00;94180.81;5091954;28;20059;-59
2023/09/15 00:21:44;;;;;;;10.97;6.40;;;;;;;12.47;100.00;94184.69;5091318;28;20040;-59
2023/09/15 00:24:11;;;;;;;9.95;5.97;;;;;;;12.45;100.00;94174.09;5092087;28;20044;-58
2023/09/15 00:26:38;;;;;;;11.23;6.68;;;;;;;12.50;100.00;94173.63;5091258;28;20408;-58
2023/09/15 00:29:08;;;;;;;10.18;6.03;;;;;;;12.50;100.00;94172.84;5081545;28;20044;-59
2023/09/15 00:31:35;;;;;;;9.98;5.43;;;;;;;12.49;100.00;94166.53;5073519;28;20047;-58
2023/09/15 00:34:04;;;;;;;11.70;5.97;;;;;;;12.43;100.00;94159.97;5091972;28;20040;-59
2023/09/15 00:36:32;;;;;;;9.40;5.78;;;;;;;12.39;100.00;94168.31;5091263;28;20643;-58
2023/09/15 00:38:59;;;;;;;10.00;5.75;;;;;;;12.38;100.00;94158.50;5091991;28;20054;-58
2023/09/15 00:41:26;;;;;;;9.75;5.90;;;;;;;12.12;100.00;94156.59;5091652;28;20056;-59
2023/09/15 00:43:53;;;;;;;10.13;5.78;;;;;;;12.24;100.00;94158.75;5091379;28;20055;-59
2023/09/15 00:46:20;;;;;;;10.83;6.83;;;;;;;12.24;100.00;94157.97;5091524;28;20040;-59
2023/09/15 00:48:48;;;;;;;9.70;5.95;;;;;;;12.19;100.00;94157.25;5078085;28;20040;-58
2023/09/15 00:51:16;;;;;;;8.90;5.70;;;;;;;12.22;100.00;94152.88;5091577;28;20047;-59
2023/09/15 00:53:43;;;;;;;9.45;5.20;;;;;;;12.18;100.00;94150.19;5091390;28;20067;-59
2023/09/15 00:56:10;;;;;;;10.55;5.90;;;;;;;12.16;100.00;94147.09;5091450;28;20120;-59
2023/09/15 00:58:41;;;;;;;8.47;5.57;;;;;;;12.11;100.00;94153.09;5086242;28;20408;-58
2023/09/15 01:01:09;;;;;;;10.38;5.57;;;;;;;12.09;100.00;94152.72;5082027;28;20442;-59
2023/09/15 01:03:40;;;;;;;9.40;5.85;;;;;;;12.08;100.00;94151.16;5090915;28;20036;-59
2023/09/15 01:06:13;;;;;;;9.18;5.55;;;;;;;12.08;100.00;94147.63;5091142;28;20044;-58
2023/09/15 01:08:41;;;;;;;8.70;5.30;;;;;;;11.93;100.00;94144.34;5090723;28;20408;-59
2023/09/15 01:11:08;;;;;;;8.50;5.13;;;;;;;11.80;100.00;94139.41;5091528;28;20048;-59
2023/09/15 01:13:35;;;;;;;9.32;5.28;;;;;;;11.90;100.00;94145.97;5090695;28;20048;-59
2023/09/15 01:16:13;;;;;;;8.95;5.47;;;;;;;11.45;100.00;94145.47;5091093;28;20101;-58
2023/09/15 01:19:05;;;;;;;8.80;5.63;;;;;;;11.60;100.00;94138.56;5090473;28;20040;-58
2023/09/15 01:22:03;;;;;;;8.60;5.28;;;;;;;11.52;100.00;94137.88;5090666;28;20507;-58
2023/09/15 01:24:56;;;;;;;8.90;5.63;;;;;;;11.67;100.00;94135.72;5090648;28;20032;-58
2023/09/15 01:27:32;;;;;;;10.13;5.50;;;;;;;11.75;100.00;94128.91;5089600;28;20047;-59
2023/09/15 01:30:00;;;;;;;10.63;6.00;;;;;;;11.70;100.00;94131.34;5077219;28;20608;-59
2023/09/15 01:32:28;;;;;;;10.18;5.80;;;;;;;11.70;100.00;94136.84;5069800;28;20400;-59
2023/09/15 01:34:55;;;;;;;9.65;5.60;;;;;;;11.65;100.00;94126.31;5069514;28;20801;-59
2023/09/15 01:37:23;;;;;;;9.37;5.73;;;;;;;11.54;100.00;94134.72;5070775;28;20480;-59
2023/09/15 01:39:52;;;;;;;10.30;6.30;;;;;;;11.65;100.00;94126.31;5069886;28;20040;-58
2023/09/15 01:42:19;;;;;;;9.45;5.90;;;;;;;11.67;100.00;94127.47;5070122;28;20052;-58
2023/09/15 01:44:46;;;;;;;12.05;5.90;;;;;;;11.72;100.00;94123.44;5069640;28;20041;-58
2023/09/15 01:47:17;;;;;;;11.50;6.30;;;;;;;11.69;100.00;94118.78;5070216;28;20043;-59
2023/09/15 01:49:45;;;;;;;9.80;5.90;;;;;;;11.46;100.00;94128.56;5057226;28;20044;-58
2023/09/15 01:52:13;;;;;;;10.13;5.63;;;;;;;11.53;100.00;94122.97;5069914;28;20106;-59
2023/09/15 01:54:40;;;;;;;9.40;5.63;;;;;;;11.50;100.00;94123.78;5069631;28;20044;-58
2023/09/15 01:57:06;;;;;;;10.70;6.13;;;;;;;11.49;100.00;94129.69;5070013;28;20040;-59
2023/09/15 01:59:34;;;;;;;9.95;6.03;;;;;;;11.50;100.00;94137.53;5067669;28;20036;-58
2023/09/15 02:02:01;;;;;;;12.07;6.03;;;;;;;11.39;100.00;94125.94;5050940;28;20078;-58
2023/09/15 02:04:28;;;;;;;11.38;6.22;;;;;;;11.56;100.00;94137.84;5060687;28;20048;-58
2023/09/15 02:06:54;;;;;;;11.45;6.88;;;;;;;11.59;100.00;94129.53;5068621;28;21676;-58
2023/09/15 02:09:21;;;;;;;11.77;6.45;;;;;;;11.39;100.00;94139.69;5069715;28;20629;-58
2023/09/15 02:11:48;;;;;;;8.82;5.70;;;;;;;11.31;100.00;94143.72;5069231;28;20408;-58
2023/09/15 02:14:15;;;;;;;13.30;7.17;;;;;;;11.23;100.00;94136.75;5070129;28;20059;-58
2023/09/15 02:16:42;;;;;;;17.27;9.80;;;;;;;11.26;100.00;94133.19;5069364;28;20048;-58
2023/09/15 02:19:09;;;;;;;11.15;6.43;;;;;;;11.36;100.00;94135.78;5069819;28;20040;-58
2023/09/15 02:21:36;;;;;;;12.75;6.60;;;;;;;11.43;100.00;94134.09;5068867;28;20656;-57
2023/09/15 02:24:04;;;;;;;10.15;6.43;;;;;;;11.44;100.00;94136.44;5069074;28;20101;-58
2023/09/15 02:26:31;;;;;;;11.47;6.27;;;;;;;11.40;100.00;94143.97;5069090;28;20036;-57
2023/09/15 02:28:57;;;;;;;11.55;6.85;;;;;;;11.30;100.00;94133.91;5078253;28;20405;-58
2023/09/15 02:31:24;;;;;;;11.32;6.97;;;;;;;11.31;100.00;94141.75;5069282;28;20489;-58
2023/09/15 02:33:51;;;;;;;12.43;6.90;;;;;;;11.37;100.00;94131.06;5068984;28;20052;-58
2023/09/15 02:36:18;;;;;;;11.32;6.90;;;;;;;11.41;100.00;94126.31;5069230;28;20046;-58
2023/09/15 02:38:44;;;;;;;11.57;6.63;;;;;;;11.37;100.00;94123.59;5068722;28;20050;-58
2023/09/15 02:41:12;;;;;;;12.88;7.55;;;;;;;11.45;100.00;94115.22;5069463;28;20059;-58
2023/09/15 02:43:38;;;;;;;12.57;7.20;;;;;;;11.29;100.00;94115.84;5068443;28;20052;-58
2023/09/15 02:46:05;;;;;;;12.25;7.45;;;;;;;11.37;100.00;94115.34;5069319;28;20105;-57
2023/09/15 02:48:33;;;;;;;12.20;7.95;;;;;;;11.43;100.00;94121.16;5067803;28;20056;-57
2023/09/15 02:51:00;;;;;;;13.93;8.43;;;;;;;11.46;100.00;94111.31;5060314;28;20049;-58
2023/09/15 02:53:27;;;;;;;12.73;7.35;;;;;;;11.41;100.00;94120.81;5063695;28;20161;-58
2023/09/15 02:56:02;;;;;;;11.10;6.75;;;;;;;11.17;100.00;94118.00;5067234;28;20052;-59
2023/09/15 02:58:29;;;;;;;14.45;8.32;;;;;;;11.28;100.00;94117.84;5069352;28;20093;-58
2023/09/15 03:00:55;;;;;;;12.00;7.45;;;;;;;11.29;100.00;94124.09;5068327;28;20584;-58
2023/09/15 03:03:25;;;;;;;13.17;7.60;;;;;;;11.16;100.00;94116.44;5068826;28;20101;-58
2023/09/15 03:06:06;;;;;;;13.82;7.97;;;;;;;11.28;100.00;94125.31;5068369;28;20507;-58
2023/09/15 03:08:33;;;;;;;14.38;7.93;;;;;;;11.26;100.00;94122.97;5068646;28;20424;-57
2023/09/15 03:11:01;;;;;;;13.07;8.07;;;;;;;11.32;100.00;94120.53;5068907;28;20447;-58
2023/09/15 03:13:28;;;;;;;13.68;7.95;;;;;;;11.32;100.00;94126.81;5068732;28;20045;-58
2023/09/15 03:15:54;;;;;;;12.97;7.87;;;;;;;11.39;100.00;94125.94;5068223;28;20980;-58
2023/09/15 03:18:22;;;;;;;12.20;7.28;;;;;;;11.30;100.00;94122.91;5068830;28;20382;-58
2023/09/15 03:20:48;;;;;;;11.27;7.10;;;;;;;11.27;100.00;94123.75;5068716;28;20089;-58
2023/09/15 03:23:15;;;;;;;14.23;7.40;;;;;;;11.08;100.00;94117.72;5068725;28;20591;-58
2023/09/15 03:25:42;;;;;;;14.23;8.30;;;;;;;11.16;100.00;94127.41;5068503;28;20391;-58
2023/09/15 03:28:09;;;;;;;15.30;8.40;;;;;;;11.16;100.00;94124.66;5073418;28;20041;-58
2023/09/15 03:30:36;;;;;;;13.90;8.40;;;;;;;11.17;100.00;94112.50;5068566;28;20150;-58
2023/09/15 03:33:07;;;;;;;12.70;7.95;;;;;;;11.26;100.00;94111.97;5069101;28;20058;-58
2023/09/15 03:35:34;;;;;;;13.25;8.30;;;;;;;11.26;100.00;94105.72;5068166;28;20055;-57
2023/09/15 03:38:02;;;;;;;15.73;8.52;;;;;;;11.30;100.00;94109.19;5068854;28;20055;-58
2023/09/15 03:40:30;;;;;;;15.97;8.77;;;;;;;11.23;100.00;94101.03;5068829;28;20047;-58
2023/09/15 03:42:56;;;;;;;15.10;8.98;;;;;;;11.26;100.00;94101.00;5067955;28;20911;-58
2023/09/15 03:45:23;;;;;;;13.48;8.30;;;;;;;11.17;100.00;94092.50;5068711;28;20510;-58
2023/09/15 03:47:50;;;;;;;13.65;8.00;;;;;;;11.22;100.00;94096.75;5068286;28;20043;-58
2023/09/15 03:50:21;;;;;;;14.80;8.10;;;;;;;11.25;100.00;94102.19;5068655;28;20047;-58
2023/09/15 03:52:48;;;;;;;13.67;8.67;;;;;;;11.05;100.00;94095.81;5068129;28;20428;-58
2023/09/15 03:55:17;;;;;;;13.10;7.60;;;;;;;11.06;100.00;94094.63;5069765;28;20057;-59
2023/09/15 03:57:44;;;;;;;14.57;8.38;;;;;;;11.15;100.00;94098.41;5071930;28;20089;-58
2023/09/15 04:00:17;;;;;;;15.10;8.60;;;;;;;11.03;100.00;94082.50;5056422;28;20040;-59
2023/09/15 04:02:44;;;;;;;16.23;9.00;;;;;;;11.19;100.00;94084.63;5052435;28;20378;-58
2023/09/15 04:05:11;;;;;;;15.67;9.10;;;;;;;11.23;100.00;94093.59;5070267;28;20051;-59
2023/09/15 04:07:38;;;;;;;13.57;7.97;;;;;;;11.00;100.00;94088.81;5067780;28;20051;-59
2023/09/15 04:10:05;;;;;;;13.73;7.70;;;;;;;10.99;100.00;94085.28;5062413;28;20494;-59
2023/09/15 04:12:34;;;;;;;13.48;7.63;;;;;;;10.90;100.00;94076.78;5060556;28;20048;-58
2023/09/15 04:15:00;;;;;;;13.30;7.93;;;;;;;10.92;100.00;94079.13;5070311;28;20146;-59
2023/09/15 04:17:27;;;;;;;14.13;8.67;;;;;;;10.46;100.00;94084.00;5071869;28;20036;-59
2023/09/15 04:19:54;;;;;;;13.65;8.20;;;;;;;10.49;100.00;94083.22;5054701;28;20075;-58
2023/09/15 04:22:20;;;;;;;15.82;9.43;;;;;;;10.74;100.00;94079.34;5062345;28;20054;-58
2023/09/15 04:24:47;;;;;;;20.25;11.60;;;;;;;10.82;100.00;94085.53;5071303;28;20048;-59
2023/09/15 04:27:14;;;;;;;16.08;10.60;;;;;;;10.87;100.00;94091.34;5075146;28;20506;-59
2023/09/15 04:29:55;;;;;;;14.37;8.70;;;;;;;10.74;100.00;94087.59;5073244;28;20049;-58
2023/09/15 04:32:22;;;;;;;14.60;8.98;;;;;;;10.60;100.00;94091.28;5071954;28;20384;-60
2023/09/15 04:34:53;;;;;;;14.98;8.73;;;;;;;10.66;100.00;94097.88;5070893;28;20044;-59
2023/09/15 04:37:21;;;;;;;12.98;8.13;;;;;;;10.69;100.00;94094.31;5070160;28;20056;-59
2023/09/15 04:39:54;;;;;;;18.27;9.45;;;;;;;10.68;100.00;94098.25;5070981;28;20044;-59
2023/09/15 04:42:20;;;;;;;12.73;7.77;;;;;;;10.64;100.00;94094.78;5059202;28;20490;-58
2023/09/15 04:44:47;;;;;;;13.18;7.85;;;;;;;10.67;100.00;94110.44;5070508;28;20409;-59
2023/09/15 04:47:35;;;;;;;13.60;8.13;;;;;;;10.69;100.00;94107.28;5071659;28;20053;-58
2023/09/15 04:50:02;;;;;;;13.48;7.78;;;;;;;10.68;100.00;94103.75;5066649;28;20820;-59
2023/09/15 04:52:29;;;;;;;13.15;7.60;;;;;;;10.69;100.00;94110.81;5052603;28;20053;-58
2023/09/15 04:54:56;;;;;;;16.47;9.40;;;;;;;10.70;100.00;94117.81;5087718;28;21571;-59
2023/09/15 04:57:23;;;;;;;17.63;9.50;;;;;;;10.79;100.00;94112.63;5091476;28;20104;-59
2023/09/15 04:59:53;;;;;;;19.60;10.20;;;;;;;10.78;100.00;94111.09;5086486;28;20048;-59
2023/09/15 05:02:23;;;;;;;19.75;10.57;;;;;;;10.76;100.00;94118.94;5056760;28;20049;-59
2023/09/15 05:04:51;;;;;;;17.80;9.45;;;;;;;10.67;100.00;94121.41;5061615;28;20052;-60
2023/09/15 05:07:18;;;;;;;17.20;10.07;;;;;;;10.75;100.00;94128.38;5065695;28;20051;-60
2023/09/15 05:09:45;;;;;;;21.17;9.40;;;;;;;10.48;100.00;94125.53;5055609;28;20419;-59
2023/09/15 05:12:15;;;;;;;14.75;8.50;;;;;;;10.78;100.00;94116.56;5070996;28;20055;-60
2023/09/15 05:14:42;;;;;;;21.80;9.38;;;;;;;10.78;100.00;94115.78;5070215;28;20040;-59
2023/09/15 05:17:09;;;;;;;16.60;9.07;;;;;;;10.91;100.00;94110.53;5069406;28;20382;-60
2023/09/15 05:19:37;;;;;;;19.87;9.37;;;;;;;10.99;100.00;94129.22;5069941;28;20439;-60
2023/09/15 05:22:04;;;;;;;16.92;8.93;;;;;;;11.12;100.00;94123.94;5070985;28;20047;-60
2023/09/15 05:24:31;;;;;;;14.70;8.60;;;;;;;11.16;100.00;94126.66;5057970;28;20037;-60
2023/09/15 05:26:57;;;;;;;15.90;7.78;;;;;;;11.33;100.00;94130.34;5071718;28;20036;-60
2023/09/15 05:29:25;;;;;;;22.10;9.48;;;;;;;11.19;100.00;94125.84;5075386;28;20770;-60
2023/09/15 05:31:51;;;;;;;23.97;9.20;;;;;;;11.31;100.00;94132.72;5070139;28;20416;-59
2023/09/15 05:34:18;;;;;;;25.27;8.70;;;;;;;11.30;100.00;94137.44;5070461;28;20326;-59
2023/09/15 05:36:45;;;;;;;24.73;9.07;;;;;;;11.31;100.00;94127.25;5069783;28;20048;-59
2023/09/15 05:39:12;;;;;;;16.08;8.57;;;;;;;11.34;100.00;94127.16;5064167;28;20049;-59
2023/09/15 05:41:38;;;;;;;17.05;8.55;;;;;;;11.45;100.00;94134.47;5069570;28;20051;-59
2023/09/15 05:44:05;;;;;;;13.63;8.07;;;;;;;11.65;100.00;94135.34;5069739;28;20059;-60
2023/09/15 05:46:32;;;;;;;16.80;8.52;;;;;;;11.69;100.00;94132.53;5069845;28;20056;-59
2023/09/15 05:48:59;;;;;;;14.02;8.00;;;;;;;11.74;100.00;94129.31;5070029;28;20049;-59
2023/09/15 05:51:26;;;;;;;15.05;8.18;;;;;;;11.87;100.00;94132.22;5070422;28;20048;-60
2023/09/15 05:53:52;;;;;;;14.70;8.98;;;;;;;11.54;100.00;94130.00;5069859;28;20047;-59
2023/09/15 05:56:19;;;;;;;12.37;7.80;;;;;;;11.95;100.00;94130.94;5070058;28;20051;-60
2023/09/15 05:58:46;;;;;;;14.63;8.25;;;;;;;11.85;100.00;94131.88;5069492;28;20051;-59
2023/09/15 06:01:13;;;;;;;16.60;8.70;;;;;;;11.90;100.00;94128.69;5070359;28;20070;-59
2023/09/15 06:03:40;;;;;;;13.77;8.05;;;;;;;12.05;100.00;94135.47;5069217;28;20048;-59
2023/09/15 06:06:06;;;;;;;14.55;8.50;;;;;;;12.27;100.00;94121.34;5069548;28;20043;-58
2023/09/15 06:08:33;;;;;;;13.00;7.80;;;;;;;12.36;100.00;94127.84;5050127;28;20396;-58
2023/09/15 06:11:00;;;;;;;15.13;8.13;;;;;;;12.34;100.00;94127.50;5054104;28;20059;-58
2023/09/15 06:13:27;;;;;;;14.25;7.70;;;;;;;12.38;100.00;94124.69;5069666;28;20043;-59
2023/09/15 06:15:55;;;;;;;13.93;8.13;;;;;;;12.48;100.00;94125.69;5069584;28;20044;-59
2023/09/15 06:18:22;;;;;;;13.48;8.05;;;;;;;12.55;100.00;94126.31;5069473;28;20055;-58
2023/09/15 06:20:48;;;;;;;14.03;7.97;;;;;;;12.65;100.00;94126.53;5069041;28;20041;-59
2023/09/15 06:23:16;;;;;;;19.88;8.98;;;;;;;12.45;100.00;94130.03;5069467;28;20528;-59
2023/09/15 06:25:46;;;;;;;14.02;8.35;;;;;;;12.72;100.00;94129.94;5068884;28;20477;-58
2023/09/15 06:28:13;;;;;;;12.93;7.97;;;;;;;12.92;100.00;94124.41;5071363;28;20044;-60
2023/09/15 06:30:47;;;;;;;17.20;8.98;;;;;;;13.00;100.00;94114.00;5068971;28;20036;-60
2023/09/15 06:33:14;;;;;;;12.60;7.70;;;;;;;12.87;100.00;94124.13;5069364;28;20060;-60
2023/09/15 06:35:41;;;;;;;15.48;8.75;;;;;;;12.97;100.00;94126.66;5068579;28;20040;-59
2023/09/15 06:38:10;;;;;;;14.85;8.35;;;;;;;13.21;100.00;94126.53;5069334;28;20052;-59
2023/09/15 06:40:36;;;;;;;17.00;8.50;;;;;;;13.06;100.00;94123.31;5068993;28;20085;-59
2023/09/15 06:43:06;;;;;;;14.40;7.63;;;;;;;13.50;100.00;94125.91;5069403;28;20052;-59
2023/09/15 06:45:34;;;;;;;13.73;8.70;;;;;;;12.87;100.00;94127.66;5069081;28;20408;-59
2023/09/15 06:48:01;;;;;;;13.98;8.55;;;;;;;12.42;100.00;94130.13;5069244;28;20405;-60
2023/09/15 06:50:28;;;;;;;14.88;8.77;;;;;;;12.58;100.00;94128.22;5068965;28;20436;-60
2023/09/15 06:52:54;;;;;;;17.00;8.93;;;;;;;12.76;100.00;94130.63;5068133;28;20045;-59
2023/09/15 06:55:21;;;;;;;15.68;8.77;;;;;;;12.92;100.00;94124.41;5069276;28;20459;-58
2023/09/15 06:57:48;;;;;;;12.23;7.50;;;;;;;13.15;100.00;94123.50;5068582;28;20049;-58
2023/09/15 07:00:15;;;;;;;14.55;8.90;;;;;;;13.08;100.00;94129.19;5068696;28;20032;-58
2023/09/15 07:02:42;;;;;;;13.57;8.57;;;;;;;13.62;100.00;94124.47;5068644;28;20044;-58
2023/09/15 07:05:08;;;;;;;12.68;8.85;;;;;;;15.40;100.00;94118.13;5068842;28;20041;-58
2023/09/15 07:07:35;;;;;;;13.77;8.65;;;;;;;15.51;100.00;94107.53;5062745;28;20048;-58
2023/09/15 07:10:04;;;;;;;11.80;7.67;;;;;;;17.93;100.00;94111.69;5050140;28;20520;-58
2023/09/15 07:12:31;;;;;;;11.23;7.38;;;;;;;18.81;100.00;94107.59;5065248;28;20071;-59
2023/09/15 07:14:58;;;;;;;10.73;7.57;;;;;;;18.86;100.00;94112.56;5069018;28;20517;-59
2023/09/15 07:17:24;;;;;;;11.25;6.90;;;;;;;20.51;100.00;94108.34;5068904;28;20047;-59
2023/09/15 07:19:51;;;;;;;10.85;7.05;;;;;;;22.88;85.30;94109.38;5068801;28;20060;-60
2023/09/15 07:22:18;;;;;;;9.50;6.30;;;;;;;23.40;86.53;94100.25;5066470;28;20047;-60
2023/09/15 07:24:45;;;;;;;9.20;6.38;;;;;;;25.55;71.81;94098.59;5056925;28;20037;-60
2023/09/15 07:27:11;;;;;;;8.85;6.90;;;;;;;24.63;73.97;94099.59;5065234;28;20184;-59
2023/09/15 07:29:38;;;;;;;11.68;6.53;;;;;;;24.57;72.99;94098.81;5068596;28;20039;-59
2023/09/15 07:32:06;;;;;;;9.45;6.10;;;;;;;26.58;66.73;94095.97;5072649;28;20052;-60
2023/09/15 07:34:33;;;;;;;9.47;6.40;;;;;;;26.54;63.18;94094.66;5072585;28;20048;-60
2023/09/15 07:37:00;;;;;;;9.15;6.10;;;;;;;27.24;61.19;94098.25;5072394;28;20047;-60
2023/09/15 07:39:29;;;;;;;8.52;6.82;;;;;;;27.03;59.88;94092.19;5072639;28;20128;-60
2023/09/15 07:41:56;;;;;;;10.30;6.22;;;;;;;28.91;54.15;94093.69;5070171;28;21398;-60
2023/09/15 07:44:22;;;;;;;8.18;5.90;;;;;;;29.68;51.26;94086.78;5072518;28;20067;-60
2023/09/15 07:46:49;;;;;;;7.83;5.87;;;;;;;30.65;49.34;94086.69;5071997;28;20048;-60
2023/09/15 07:49:16;;;;;;;8.13;6.10;;;;;;;31.12;45.88;94094.50;5072489;28;20049;-59
2023/09/15 07:51:43;;;;;;;9.35;7.40;;;;;;;27.26;51.58;94093.59;5071958;28;20510;-59
2023/09/15 07:54:10;;;;;;;8.57;5.72;;;;;;;30.20;49.87;94087.47;5072177;28;20048;-59
2023/09/15 07:56:37;;;;;;;9.35;6.35;;;;;;;30.07;49.26;94082.56;5071841;28;20052;-59
2023/09/15 07:59:06;;;;;;;7.67;5.70;;;;;;;32.09;44.33;94085.34;5072133;28;20045;-60
2023/09/15 08:01:34;;;;;;;10.88;6.20;;;;;;;30.50;46.77;94080.78;5071720;28;20071;-60
2023/09/15 08:04:01;;;;;;;7.88;5.70;;;;;;;31.77;44.50;94083.53;5071852;28;20178;-59
2023/09/15 08:06:28;;;;;;;9.30;5.43;;;;;;;32.01;44.54;94073.94;5071859;28;20233;-58
2023/09/15 08:08:55;;;;;;;9.80;6.03;;;;;;;32.31;43.71;94078.34;5071675;28;20400;-58
2023/09/15 08:11:22;;;;;;;9.40;6.40;;;;;;;32.23;43.99;94077.53;5072126;28;20101;-58
2023/09/15 08:13:48;;;;;;;9.38;5.97;;;;;;;32.73;43.30;94078.28;5071412;28;20055;-58
2023/09/15 08:16:15;;;;;;;6.97;5.57;;;;;;;33.81;40.92;94070.97;5072084;28;20040;-58
2023/09/15 08:18:42;;;;;;;8.52;6.50;;;;;;;33.73;41.73;94084.44;5071091;28;20071;-58
2023/09/15 08:21:09;;;;;;;8.63;6.32;;;;;;;33.94;40.32;94080.69;5071703;28;20093;-59
2023/09/15 08:23:36;;;;;;;8.30;6.73;;;;;;;33.58;40.59;94087.22;5071413;28;20041;-59
2023/09/15 08:26:03;;;;;;;8.10;6.18;;;;;;;35.69;38.17;94072.41;5072085;28;20036;-59
2023/09/15 08:28:30;;;;;;;8.45;6.68;;;;;;;33.86;38.41;94077.06;5076242;28;20575;-58
2023/09/15 08:30:57;;;;;;;8.07;6.00;;;;;;;35.62;36.75;94076.06;5051706;28;20052;-59
2023/09/15 08:33:23;;;;;;;8.57;5.90;;;;;;;35.29;36.34;94073.16;5063457;28;20040;-60
2023/09/15 08:35:51;;;;;;;9.57;6.87;;;;;;;34.67;36.76;94063.25;5071171;28;20061;-61
2023/09/15 08:38:18;;;;;;;7.32;5.45;;;;;;;36.24;34.79;94067.91;5071871;28;20097;-60
2023/09/15 08:40:49;;;;;;;7.35;6.00;;;;;;;32.79;39.52;94066.75;5070417;28;20062;-60
2023/09/15 08:43:16;;;;;;;7.18;5.30;;;;;;;33.62;40.00;94064.88;5071733;28;20044;-60
2023/09/15 08:45:48;;;;;;;6.47;5.00;;;;;;;35.83;35.97;94055.78;5069544;28;20044;-60
2023/09/15 08:48:21;;;;;;;8.40;5.23;;;;;;;34.69;37.98;94058.50;5071492;28;20053;-60
2023/09/15 08:50:48;;;;;;;6.85;5.65;;;;;;;35.54;35.29;94058.97;5069716;28;20053;-60
2023/09/15 08:53:16;;;;;;;6.97;5.72;;;;;;;36.45;33.94;94055.34;5071506;28;20097;-60
2023/09/15 08:55:44;;;;;;;6.25;4.93;;;;;;;37.26;32.63;94052.78;5070789;28;20047;-60
2023/09/15 08:58:12;;;;;;;6.43;5.18;;;;;;;37.21;33.19;94039.53;5071389;28;20047;-60
2023/09/15 09:00:39;;;;;;;8.80;5.30;;;;;;;32.88;38.03;94045.56;5070370;28;20062;-61
2023/09/15 09:03:06;;;;;;;7.22;5.90;;;;;;;31.84;39.90;94045.19;5069915;28;20408;-59
2023/09/15 09:05:35;;;;;;;6.50;5.78;;;;;;;29.12;48.48;94060.06;5070319;28;20380;-59
2023/09/15 09:08:03;;;;;;;7.70;6.80;;;;;;;32.77;42.39;94053.09;5070754;28;20054;-60
2023/09/15 09:10:30;;;;;;;6.75;5.88;;;;;;;33.70;39.69;94057.09;5070620;28;20037;-59
2023/09/15 09:12:57;;;;;;;7.00;5.43;;;;;;;33.36;40.91;94054.53;5081797;28;20492;-60
2023/09/15 09:15:25;;;;;;;7.47;5.80;;;;;;;30.28;45.85;94054.38;5091420;28;20408;-60
2023/09/15 09:17:51;;;;;;;7.57;5.55;;;;;;;32.87;42.53;94049.75;5090334;28;20048;-60
2023/09/15 09:20:26;;;;;;;6.72;5.97;;;;;;;33.89;40.25;94050.31;5090935;28;20108;-60
2023/09/15 09:22:53;;;;;;;7.05;5.55;;;;;;;30.59;45.26;94044.28;5090612;28;20108;-59
2023/09/15 09:25:33;;;;;;;7.73;6.00;;;;;;;30.92;44.81;94044.94;5091106;28;20130;-60
2023/09/15 09:28:03;;;;;;;8.23;5.65;;;;;;;29.65;48.40;94042.56;5071068;28;20071;-60
2023/09/15 09:30:29;;;;;;;6.78;5.35;;;;;;;28.98;52.23;94045.06;5051817;28;20033;-59
2023/09/15 09:32:57;;;;;;;7.65;6.22;;;;;;;28.44;52.07;94055.22;5058555;28;20040;-60
2023/09/15 09:35:24;;;;;;;9.40;5.72;;;;;;;27.76;58.30;94052.25;5070822;28;20045;-60
2023/09/15 09:37:56;;;;;;;7.90;6.27;;;;;;;26.58;62.31;94047.34;5070281;28;20087;-59
2023/09/15 09:40:23;;;;;;;9.18;6.57;;;;;;;26.10;72.54;94044.41;5070478;28;20044;-59
2023/09/15 09:42:50;;;;;;;10.77;6.18;;;;;;;29.26;58.97;94044.72;5070099;28;20066;-59
2023/09/15 09:45:17;;;;;;;6.60;5.50;;;;;;;30.68;52.29;94028.91;5070287;28;20040;-60
2023/09/15 09:47:44;;;;;;;8.50;5.70;;;;;;;32.96;46.45;94029.31;5069711;28;20048;-60
2023/09/15 09:50:12;;;;;;;7.23;5.70;;;;;;;30.26;49.66;94037.94;5070255;28;20093;-60
2023/09/15 09:52:42;;;;;;;6.85;5.60;;;;;;;30.10;50.18;94036.16;5068545;28;20033;-60
2023/09/15 09:55:10;;;;;;;7.60;5.78;;;;;;;28.95;52.02;94051.03;5070024;28;20493;-60
2023/09/15 09:57:37;;;;;;;8.38;6.35;;;;;;;29.26;54.12;94050.38;5069279;28;20036;-60
2023/09/15 10:00:09;;;;;;;7.65;5.95;;;;;;;29.94;51.92;94035.19;5069995;28;20101;-61
2023/09/15 10:02:39;;;;;;;7.77;5.70;;;;;;;31.07;49.17;94033.03;5069521;28;20046;-60
2023/09/15 10:05:07;;;;;;;7.00;5.70;;;;;;;31.44;47.81;94029.13;5069599;28;20056;-61
2023/09/15 10:07:35;;;;;;;7.97;5.72;;;;;;;32.84;44.26;94032.50;5069167;28;20049;-60
2023/09/15 10:10:05;;;;;;;7.30;5.70;;;;;;;31.93;45.05;94039.03;5069885;28;20063;-61
2023/09/15 10:12:33;;;;;;;7.43;6.18;;;;;;;32.48;44.05;94026.00;5069195;28;20408;-60
2023/09/15 10:15:02;;;;;;;6.90;5.90;;;;;;;30.40;46.63;94030.22;5069898;28;20101;-60
2023/09/15 10:17:28;;;;;;;7.85;6.18;;;;;;;29.24;51.23;94027.53;5069539;28;20056;-60
2023/09/15 10:19:56;;;;;;;8.25;6.00;;;;;;;28.32;52.77;94030.47;5069436;28;20060;-60
2023/09/15 10:22:23;;;;;;;8.45;5.80;;;;;;;29.33;53.68;94020.72;5069417;28;20387;-60
2023/09/15 10:24:58;;;;;;;8.52;6.05;;;;;;;27.88;56.23;94036.78;5069279;28;20482;-59
2023/09/15 10:27:27;;;;;;;7.60;6.80;;;;;;;27.88;56.12;94036.03;5070548;28;20486;-59
2023/09/15 10:30:02;;;;;;;7.45;6.00;;;;;;;28.70;56.19;94039.03;5054642;28;20052;-59
2023/09/15 10:32:35;;;;;;;7.53;6.30;;;;;;;27.07;59.91;94037.09;5053795;28;20036;-59
2023/09/15 10:35:03;;;;;;;8.50;6.25;;;;;;;25.40;70.79;94045.47;5068538;28;20837;-59
2023/09/15 10:37:30;;;;;;;8.88;6.30;;;;;;;24.10;80.53;94039.38;5068862;28;20043;-58
2023/09/15 10:39:59;;;;;;;8.33;7.27;;;;;;;23.13;99.25;94043.50;5069420;28;20043;-59
2023/09/15 10:42:28;;;;;;;10.32;8.00;;;;;;;23.30;99.15;94034.47;5069180;28;20037;-59
2023/09/15 10:44:55;;;;;;;11.10;8.00;;;;;;;22.97;100.00;94032.13;5068567;28;20221;-59
2023/09/15 10:47:22;;;;;;;13.65;8.43;;;;;;;23.31;100.00;94022.78;5068991;28;20037;-59
2023/09/15 10:49:53;;;;;;;10.82;8.80;;;;;;;22.72;100.00;94024.00;5068428;28;20040;-60
2023/09/15 10:52:36;;;;;;;11.10;8.20;;;;;;;23.69;99.61;94043.19;5069261;28;20048;-59
2023/09/15 10:55:04;;;;;;;10.30;7.47;;;;;;;27.02;80.12;94031.50;5068458;28;20831;-60
2023/09/15 10:57:36;;;;;;;9.68;7.10;;;;;;;28.28;69.30;94030.75;5068480;28;20177;-60
2023/09/15 11:00:06;;;;;;;10.38;7.00;;;;;;;27.72;71.82;94020.00;5069370;28;20040;-61
2023/09/15 11:02:36;;;;;;;8.18;6.80;;;;;;;29.27;66.21;94017.19;5068565;28;20044;-60
2023/09/15 11:05:05;;;;;;;7.77;6.10;;;;;;;28.75;65.96;94019.19;5067745;28;20053;-61
2023/09/15 11:07:34;;;;;;;8.25;6.30;;;;;;;29.61;63.15;94025.91;5068603;28;20435;-60
2023/09/15 11:10:02;;;;;;;8.85;7.07;;;;;;;26.30;72.24;94029.25;5069386;28;20044;-60
2023/09/15 11:12:29;;;;;;;9.38;7.93;;;;;;;23.49;92.42;94030.03;5069143;28;20041;-60
2023/09/15 11:14:59;;;;;;;11.38;8.90;;;;;;;22.90;100.00;94028.50;5066761;28;20051;-60
2023/09/15 11:17:30;;;;;;;10.13;8.37;;;;;;;24.16;94.94;94031.00;5069253;28;20049;-60
2023/09/15 11:19:59;;;;;;;9.82;7.90;;;;;;;24.53;91.21;94025.34;5068403;28;20163;-60
2023/09/15 11:22:26;;;;;;;10.57;7.78;;;;;;;23.47;95.32;94032.56;5069030;28;20055;-60
2023/09/15 11:24:53;;;;;;;10.85;8.48;;;;;;;22.90;98.80;94027.75;5068380;28;20047;-60
2023/09/15 11:27:36;;;;;;;11.18;8.00;;;;;;;22.62;100.00;94022.59;5069868;28;20059;-60
2023/09/15 11:30:04;;;;;;;10.00;7.40;;;;;;;23.20;97.22;94013.50;5053163;28;20125;-60